sensor_id;sensor_type;location;lat;lon;timestamp;temperature;humidity
71096;DHT22;58753;49.440;11.126;2022-10-01T00:00:12;4.86;90.99
71096;DHT22;58753;49.440;11.126;2022-10-01T00:02:37;4.86;90.95
71096;DHT22;58753;49.440;11.126;2022-10-01T00:05:05;4.86;90.93
71096;DHT22;58753;49.440;11.126;2022-10-01T00:07:42;4.88;91.00
71096;DHT22;58753;49.440;11.126;2022-10-01T00:10:08;4.88;91.04
71096;DHT22;58753;49.440;11.126;2022-10-01T00:12:36;4.88;91.09
71096;DHT22;58753;49.440;11.126;2022-10-01T00:15:01;4.81;91.09
71096;DHT22;58753;49.440;11.126;2022-10-01T00:17:28;4.84;91.01
71096;DHT22;58753;49.440;11.126;2022-10-01T00:19:53;4.81;90.97
71096;DHT22;58753;49.440;11.126;2022-10-01T00:22:18;4.85;91.07
71096;DHT22;58753;49.440;11.126;2022-10-01T00:24:44;4.81;90.97
71096;DHT22;58753;49.440;11.126;2022-10-01T00:27:11;4.81;91.03
71096;DHT22;58753;49.440;11.126;2022-10-01T00:29:38;4.79;91.12
71096;DHT22;58753;49.440;11.126;2022-10-01T00:32:03;4.76;90.93
71096;DHT22;58753;49.440;11.126;2022-10-01T00:34:29;4.75;91.16
71096;DHT22;58753;49.440;11.126;2022-10-01T00:36:54;4.74;91.02
71096;DHT22;58753;49.440;11.126;2022-10-01T00:39:20;4.69;90.95
71096;DHT22;58753;49.440;11.126;2022-10-01T00:41:45;4.67;91.15
71096;DHT22;58753;49.440;11.126;2022-10-01T00:44:34;4.67;91.29
71096;DHT22;58753;49.440;11.126;2022-10-01T00:47:26;4.68;91.17
71096;DHT22;58753;49.440;11.126;2022-10-01T00:49:56;4.65;91.14
71096;DHT22;58753;49.440;11.126;2022-10-01T00:52:25;4.64;91.24
71096;DHT22;58753;49.440;11.126;2022-10-01T00:55:06;4.64;91.16
71096;DHT22;58753;49.440;11.126;2022-10-01T00:57:32;4.64;91.37
71096;DHT22;58753;49.440;11.126;2022-10-01T01:00:02;4.68;91.29
71096;DHT22;58753;49.440;11.126;2022-10-01T01:02:28;4.67;91.39
71096;DHT22;58753;49.440;11.126;2022-10-01T01:04:54;4.68;91.48
71096;DHT22;58753;49.440;11.126;2022-10-01T01:07:19;4.68;91.44
71096;DHT22;58753;49.440;11.126;2022-10-01T01:09:47;4.67;91.46
71096;DHT22;58753;49.440;11.126;2022-10-01T01:29:54;4.51;91.23
71096;DHT22;58753;49.440;11.126;2022-10-01T01:32:28;4.44;91.13
71096;DHT22;58753;49.440;11.126;2022-10-01T01:34:56;4.44;91.28
71096;DHT22;58753;49.440;11.126;2022-10-01T01:37:29;4.40;91.14
71096;DHT22;58753;49.440;11.126;2022-10-01T01:39:58;4.34;91.16
71096;DHT22;58753;49.440;11.126;2022-10-01T01:42:29;4.29;91.33
71096;DHT22;58753;49.440;11.126;2022-10-01T01:44:57;4.33;91.44
71096;DHT22;58753;49.440;11.126;2022-10-01T01:47:25;4.31;91.41
71096;DHT22;58753;49.440;11.126;2022-10-01T01:49:53;4.31;91.51
71096;DHT22;58753;49.440;11.126;2022-10-01T01:52:19;4.34;91.55
71096;DHT22;58753;49.440;11.126;2022-10-01T01:54:45;4.33;91.46
71096;DHT22;58753;49.440;11.126;2022-10-01T01:57:13;4.29;91.35
71096;DHT22;58753;49.440;11.126;2022-10-01T01:59:39;4.31;91.72
71096;DHT22;58753;49.440;11.126;2022-10-01T02:02:05;4.29;91.44
71096;DHT22;58753;49.440;11.126;2022-10-01T02:04:37;4.34;91.76
71096;DHT22;58753;49.440;11.126;2022-10-01T02:10:02;4.30;91.65
71096;DHT22;58753;49.440;11.126;2022-10-01T02:12:54;4.36;91.88
71096;DHT22;58753;49.440;11.126;2022-10-01T02:18:13;4.31;91.77
71096;DHT22;58753;49.440;11.126;2022-10-01T02:20:52;4.31;91.72
71096;DHT22;58753;49.440;11.126;2022-10-01T02:23:24;4.33;91.93
71096;DHT22;58753;49.440;11.126;2022-10-01T02:25:56;4.30;91.82
71096;DHT22;58753;49.440;11.126;2022-10-01T02:28:22;4.31;92.02
71096;DHT22;58753;49.440;11.126;2022-10-01T02:30:53;4.31;91.81
71096;DHT22;58753;49.440;11.126;2022-10-01T02:33:30;4.30;92.08
71096;DHT22;58753;49.440;11.126;2022-10-01T02:35:57;4.36;92.23
71096;DHT22;58753;49.440;11.126;2022-10-01T02:38:24;4.37;92.29
71096;DHT22;58753;49.440;11.126;2022-10-01T02:40:54;4.38;92.19
71096;DHT22;58753;49.440;11.126;2022-10-01T02:43:25;4.41;92.37
71096;DHT22;58753;49.440;11.126;2022-10-01T02:45:55;4.47;92.28
71096;DHT22;58753;49.440;11.126;2022-10-01T02:48:24;4.47;92.26
71096;DHT22;58753;49.440;11.126;2022-10-01T02:51:02;4.50;92.56
71096;DHT22;58753;49.440;11.126;2022-10-01T02:53:34;4.50;92.50
71096;DHT22;58753;49.440;11.126;2022-10-01T02:56:02;4.55;92.66
71096;DHT22;58753;49.440;11.126;2022-10-01T02:58:28;4.57;92.85
71096;DHT22;58753;49.440;11.126;2022-10-01T03:00:54;4.61;93.07
71096;DHT22;58753;49.440;11.126;2022-10-01T03:03:19;4.72;93.20
71096;DHT22;58753;49.440;11.126;2022-10-01T03:05:45;4.82;93.23
71096;DHT22;58753;49.440;11.126;2022-10-01T03:08:10;4.85;93.05
71096;DHT22;58753;49.440;11.126;2022-10-01T03:10:36;4.89;92.99
71096;DHT22;58753;49.440;11.126;2022-10-01T03:13:01;4.91;92.94
71096;DHT22;58753;49.440;11.126;2022-10-01T03:15:27;4.93;93.05
71096;DHT22;58753;49.440;11.126;2022-10-01T03:17:53;4.95;93.05
71096;DHT22;58753;49.440;11.126;2022-10-01T03:20:19;4.93;92.90
71096;DHT22;58753;49.440;11.126;2022-10-01T03:22:45;4.95;92.83
71096;DHT22;58753;49.440;11.126;2022-10-01T03:25:12;4.95;92.82
71096;DHT22;58753;49.440;11.126;2022-10-01T03:27:37;4.93;92.77
71096;DHT22;58753;49.440;11.126;2022-10-01T03:30:03;4.93;92.72
71096;DHT22;58753;49.440;11.126;2022-10-01T03:32:30;4.95;92.87
71096;DHT22;58753;49.440;11.126;2022-10-01T03:34:56;4.92;92.64
71096;DHT22;58753;49.440;11.126;2022-10-01T03:37:21;4.92;92.59
71096;DHT22;58753;49.440;11.126;2022-10-01T03:39:46;4.86;92.46
71096;DHT22;58753;49.440;11.126;2022-10-01T03:42:12;4.84;92.54
71096;DHT22;58753;49.440;11.126;2022-10-01T03:44:37;4.82;92.67
71096;DHT22;58753;49.440;11.126;2022-10-01T03:47:03;4.82;92.55
71096;DHT22;58753;49.440;11.126;2022-10-01T03:49:28;4.82;92.59
71096;DHT22;58753;49.440;11.126;2022-10-01T03:51:54;4.81;92.69
71096;DHT22;58753;49.440;11.126;2022-10-01T03:54:19;4.84;92.75
71096;DHT22;58753;49.440;11.126;2022-10-01T03:56:45;4.84;92.86
71096;DHT22;58753;49.440;11.126;2022-10-01T03:59:11;4.81;92.81
71096;DHT22;58753;49.440;11.126;2022-10-01T04:01:37;4.85;92.85
71096;DHT22;58753;49.440;11.126;2022-10-01T04:04:04;4.88;92.80
71096;DHT22;58753;49.440;11.126;2022-10-01T04:06:29;4.88;92.88
71096;DHT22;58753;49.440;11.126;2022-10-01T04:08:55;4.91;92.93
71096;DHT22;58753;49.440;11.126;2022-10-01T04:11:20;4.93;93.12
71096;DHT22;58753;49.440;11.126;2022-10-01T04:13:46;4.95;93.32
71096;DHT22;58753;49.440;11.126;2022-10-01T04:16:11;4.99;93.38
71096;DHT22;58753;49.440;11.126;2022-10-01T04:18:37;5.02;93.46
71096;DHT22;58753;49.440;11.126;2022-10-01T04:21:03;5.11;93.56
71096;DHT22;58753;49.440;11.126;2022-10-01T04:23:29;5.12;93.55
71096;DHT22;58753;49.440;11.126;2022-10-01T04:25:58;5.22;93.82
71096;DHT22;58753;49.440;11.126;2022-10-01T04:28:24;5.26;93.72
71096;DHT22;58753;49.440;11.126;2022-10-01T04:30:49;5.30;93.78
71096;DHT22;58753;49.440;11.126;2022-10-01T04:33:35;5.35;93.79
71096;DHT22;58753;49.440;11.126;2022-10-01T04:36:00;5.40;93.75
71096;DHT22;58753;49.440;11.126;2022-10-01T04:38:26;5.42;93.64
71096;DHT22;58753;49.440;11.126;2022-10-01T04:40:51;5.43;93.63
71096;DHT22;58753;49.440;11.126;2022-10-01T04:43:16;5.44;93.54
71096;DHT22;58753;49.440;11.126;2022-10-01T04:45:42;5.47;93.49
71096;DHT22;58753;49.440;11.126;2022-10-01T04:48:07;5.46;93.43
71096;DHT22;58753;49.440;11.126;2022-10-01T04:50:33;5.44;93.37
71096;DHT22;58753;49.440;11.126;2022-10-01T04:52:58;5.44;93.45
71096;DHT22;58753;49.440;11.126;2022-10-01T04:55:24;5.43;93.40
71096;DHT22;58753;49.440;11.126;2022-10-01T04:57:49;5.44;93.46
71096;DHT22;58753;49.440;11.126;2022-10-01T05:00:18;5.43;93.58
71096;DHT22;58753;49.440;11.126;2022-10-01T05:02:48;5.43;93.55
71096;DHT22;58753;49.440;11.126;2022-10-01T05:05:14;5.44;93.63
71096;DHT22;58753;49.440;11.126;2022-10-01T05:07:40;5.46;93.64
71096;DHT22;58753;49.440;11.126;2022-10-01T05:10:08;5.47;93.63
71096;DHT22;58753;49.440;11.126;2022-10-01T05:12:35;5.46;93.63
71096;DHT22;58753;49.440;11.126;2022-10-01T05:15:00;5.49;93.62
71096;DHT22;58753;49.440;11.126;2022-10-01T05:17:27;5.50;93.68
71096;DHT22;58753;49.440;11.126;2022-10-01T05:19:52;5.53;94.00
71096;DHT22;58753;49.440;11.126;2022-10-01T05:22:18;5.59;93.95
71096;DHT22;58753;49.440;11.126;2022-10-01T05:24:43;5.61;93.84
71096;DHT22;58753;49.440;11.126;2022-10-01T05:27:09;5.64;94.05
71096;DHT22;58753;49.440;11.126;2022-10-01T05:29:38;5.67;94.10
71096;DHT22;58753;49.440;11.126;2022-10-01T05:32:05;5.71;94.11
71096;DHT22;58753;49.440;11.126;2022-10-01T05:34:30;5.77;94.17
71096;DHT22;58753;49.440;11.126;2022-10-01T05:36:56;5.81;94.11
71096;DHT22;58753;49.440;11.126;2022-10-01T05:39:21;5.84;94.11
71096;DHT22;58753;49.440;11.126;2022-10-01T05:41:47;5.86;94.10
71096;DHT22;58753;49.440;11.126;2022-10-01T05:44:12;5.87;94.09
71096;DHT22;58753;49.440;11.126;2022-10-01T05:46:37;5.90;94.11
71096;DHT22;58753;49.440;11.126;2022-10-01T05:49:03;5.94;94.22
71096;DHT22;58753;49.440;11.126;2022-10-01T05:51:28;5.97;94.23
71096;DHT22;58753;49.440;11.126;2022-10-01T05:53:55;6.04;94.37
71096;DHT22;58753;49.440;11.126;2022-10-01T05:56:20;6.10;94.38
71096;DHT22;58753;49.440;11.126;2022-10-01T05:58:45;6.14;94.54
71096;DHT22;58753;49.440;11.126;2022-10-01T06:01:12;6.21;94.66
71096;DHT22;58753;49.440;11.126;2022-10-01T06:03:37;6.28;94.56
71096;DHT22;58753;49.440;11.126;2022-10-01T06:06:04;6.38;94.76
71096;DHT22;58753;49.440;11.126;2022-10-01T06:08:34;6.44;94.59
71096;DHT22;58753;49.440;11.126;2022-10-01T06:11:00;6.53;94.77
71096;DHT22;58753;49.440;11.126;2022-10-01T06:13:27;6.68;94.94
71096;DHT22;58753;49.440;11.126;2022-10-01T06:15:53;6.75;94.71
71096;DHT22;58753;49.440;11.126;2022-10-01T06:18:19;6.85;94.65
71096;DHT22;58753;49.440;11.126;2022-10-01T06:20:44;6.92;94.81
71096;DHT22;58753;49.440;11.126;2022-10-01T06:23:11;6.99;94.64
71096;DHT22;58753;49.440;11.126;2022-10-01T06:25:41;7.03;94.69
71096;DHT22;58753;49.440;11.126;2022-10-01T06:28:08;7.11;94.52
71096;DHT22;58753;49.440;11.126;2022-10-01T06:30:36;7.17;94.43
71096;DHT22;58753;49.440;11.126;2022-10-01T06:33:10;7.21;94.40
71096;DHT22;58753;49.440;11.126;2022-10-01T06:35:42;7.23;94.38
71096;DHT22;58753;49.440;11.126;2022-10-01T06:38:08;7.28;94.25
71096;DHT22;58753;49.440;11.126;2022-10-01T06:40:34;7.32;94.26
71096;DHT22;58753;49.440;11.126;2022-10-01T06:42:59;7.38;94.37
71096;DHT22;58753;49.440;11.126;2022-10-01T06:45:29;7.44;94.32
71096;DHT22;58753;49.440;11.126;2022-10-01T06:47:59;7.51;94.24
71096;DHT22;58753;49.440;11.126;2022-10-01T06:50:29;7.57;94.23
71096;DHT22;58753;49.440;11.126;2022-10-01T06:52:55;7.62;94.13
71096;DHT22;58753;49.440;11.126;2022-10-01T06:55:24;7.67;94.08
71096;DHT22;58753;49.440;11.126;2022-10-01T06:58:20;7.70;93.97
71096;DHT22;58753;49.440;11.126;2022-10-01T07:00:46;7.75;93.99
71096;DHT22;58753;49.440;11.126;2022-10-01T07:03:20;7.78;93.98
71096;DHT22;58753;49.440;11.126;2022-10-01T07:05:46;7.82;93.86
71096;DHT22;58753;49.440;11.126;2022-10-01T07:08:12;7.85;93.78
71096;DHT22;58753;49.440;11.126;2022-10-01T07:10:38;7.88;93.76
71096;DHT22;58753;49.440;11.126;2022-10-01T07:13:11;7.93;93.59
71096;DHT22;58753;49.440;11.126;2022-10-01T07:15:36;8.02;93.47
71096;DHT22;58753;49.440;11.126;2022-10-01T07:18:02;8.06;93.33
71096;DHT22;58753;49.440;11.126;2022-10-01T07:20:28;8.10;93.15
71096;DHT22;58753;49.440;11.126;2022-10-01T07:22:58;8.12;92.95
71096;DHT22;58753;49.440;11.126;2022-10-01T07:25:24;8.21;92.81
71096;DHT22;58753;49.440;11.126;2022-10-01T07:27:55;8.26;92.50
71096;DHT22;58753;49.440;11.126;2022-10-01T07:30:20;8.32;92.30
71096;DHT22;58753;49.440;11.126;2022-10-01T07:32:48;8.33;92.20
71096;DHT22;58753;49.440;11.126;2022-10-01T07:35:13;8.40;92.07
71096;DHT22;58753;49.440;11.126;2022-10-01T07:37:39;8.42;91.97
71096;DHT22;58753;49.440;11.126;2022-10-01T07:40:04;8.43;91.64
71096;DHT22;58753;49.440;11.126;2022-10-01T07:42:30;8.46;91.61
71096;DHT22;58753;49.440;11.126;2022-10-01T07:44:55;8.52;91.42
71096;DHT22;58753;49.440;11.126;2022-10-01T07:47:21;8.52;91.36
71096;DHT22;58753;49.440;11.126;2022-10-01T07:49:46;8.53;91.29
71096;DHT22;58753;49.440;11.126;2022-10-01T07:52:12;8.54;91.26
71096;DHT22;58753;49.440;11.126;2022-10-01T07:54:37;8.53;91.34
71096;DHT22;58753;49.440;11.126;2022-10-01T07:57:03;8.53;91.25
71096;DHT22;58753;49.440;11.126;2022-10-01T07:59:28;8.56;91.22
71096;DHT22;58753;49.440;11.126;2022-10-01T08:01:55;8.57;91.14
71096;DHT22;58753;49.440;11.126;2022-10-01T08:04:21;8.61;91.08
71096;DHT22;58753;49.440;11.126;2022-10-01T08:07:06;8.61;91.14
71096;DHT22;58753;49.440;11.126;2022-10-01T08:09:33;8.63;91.14
71096;DHT22;58753;49.440;11.126;2022-10-01T08:11:58;8.63;91.13
71096;DHT22;58753;49.440;11.126;2022-10-01T08:14:24;8.66;91.20
71096;DHT22;58753;49.440;11.126;2022-10-01T08:16:50;8.63;91.18
71096;DHT22;58753;49.440;11.126;2022-10-01T08:19:18;8.61;91.39
71096;DHT22;58753;49.440;11.126;2022-10-01T08:21:43;8.59;91.43
71096;DHT22;58753;49.440;11.126;2022-10-01T08:24:09;8.59;91.58
71096;DHT22;58753;49.440;11.126;2022-10-01T08:26:34;8.57;91.71
71096;DHT22;58753;49.440;11.126;2022-10-01T08:29:00;8.54;91.82
71096;DHT22;58753;49.440;11.126;2022-10-01T08:31:25;8.54;92.04
71096;DHT22;58753;49.440;11.126;2022-10-01T08:33:51;8.54;92.27
71096;DHT22;58753;49.440;11.126;2022-10-01T08:36:17;8.52;92.59
71096;DHT22;58753;49.440;11.126;2022-10-01T08:38:44;8.49;92.59
71096;DHT22;58753;49.440;11.126;2022-10-01T08:43:54;8.50;92.93
71096;DHT22;58753;49.440;11.126;2022-10-01T08:46:22;8.46;93.06
71096;DHT22;58753;49.440;11.126;2022-10-01T08:52:02;8.46;93.42
71096;DHT22;58753;49.440;11.126;2022-10-01T08:54:44;8.42;93.65
71096;DHT22;58753;49.440;11.126;2022-10-01T08:57:14;8.44;93.83
71096;DHT22;58753;49.440;11.126;2022-10-01T09:00:05;8.46;93.88
71096;DHT22;58753;49.440;11.126;2022-10-01T09:02:38;8.47;94.13
71096;DHT22;58753;49.440;11.126;2022-10-01T09:05:05;8.54;94.18
71096;DHT22;58753;49.440;11.126;2022-10-01T09:21:43;8.57;94.71
71096;DHT22;58753;49.440;11.126;2022-10-01T09:24:21;8.60;94.87
71096;DHT22;58753;49.440;11.126;2022-10-01T09:26:50;8.61;94.84
71096;DHT22;58753;49.440;11.126;2022-10-01T09:29:30;8.63;94.87
71096;DHT22;58753;49.440;11.126;2022-10-01T09:31:58;8.64;94.93
71096;DHT22;58753;49.440;11.126;2022-10-01T09:34:40;8.64;94.98
71096;DHT22;58753;49.440;11.126;2022-10-01T09:37:57;8.67;95.17
71096;DHT22;58753;49.440;11.126;2022-10-01T09:40:26;8.67;95.15
71096;DHT22;58753;49.440;11.126;2022-10-01T09:43:03;8.70;95.28
71096;DHT22;58753;49.440;11.126;2022-10-01T09:45:30;8.71;95.26
71096;DHT22;58753;49.440;11.126;2022-10-01T09:48:02;8.74;95.31
71096;DHT22;58753;49.440;11.126;2022-10-01T09:50:39;8.80;95.45
71096;DHT22;58753;49.440;11.126;2022-10-01T09:53:11;8.85;95.41
71096;DHT22;58753;49.440;11.126;2022-10-01T09:55:39;8.85;95.47
71096;DHT22;58753;49.440;11.126;2022-10-01T09:58:17;8.84;95.36
71096;DHT22;58753;49.440;11.126;2022-10-01T10:00:44;8.87;95.56
71096;DHT22;58753;49.440;11.126;2022-10-01T10:03:21;8.85;95.43
71096;DHT22;58753;49.440;11.126;2022-10-01T10:05:47;8.88;95.43
71096;DHT22;58753;49.440;11.126;2022-10-01T10:08:49;8.88;95.47
71096;DHT22;58753;49.440;11.126;2022-10-01T10:11:21;8.89;95.54
71096;DHT22;58753;49.440;11.126;2022-10-01T10:13:50;8.88;95.51
71096;DHT22;58753;49.440;11.126;2022-10-01T10:16:23;8.89;95.57
71096;DHT22;58753;49.440;11.126;2022-10-01T10:18:52;8.89;95.56
71096;DHT22;58753;49.440;11.126;2022-10-01T10:21:25;8.92;95.58
71096;DHT22;58753;49.440;11.126;2022-10-01T10:23:54;8.92;95.55
71096;DHT22;58753;49.440;11.126;2022-10-01T10:26:36;8.96;95.59
71096;DHT22;58753;49.440;11.126;2022-10-01T10:29:04;8.96;95.72
71096;DHT22;58753;49.440;11.126;2022-10-01T10:31:45;9.00;95.57
71096;DHT22;58753;49.440;11.126;2022-10-01T10:34:20;9.05;95.62
71096;DHT22;58753;49.440;11.126;2022-10-01T10:36:47;9.04;95.62
71096;DHT22;58753;49.440;11.126;2022-10-01T10:39:34;9.10;95.69
71096;DHT22;58753;49.440;11.126;2022-10-01T10:42:01;9.11;95.56
71096;DHT22;58753;49.440;11.126;2022-10-01T10:44:30;9.17;95.66
71096;DHT22;58753;49.440;11.126;2022-10-01T10:47:00;9.21;95.46
71096;DHT22;58753;49.440;11.126;2022-10-01T10:49:45;9.25;95.42
71096;DHT22;58753;49.440;11.126;2022-10-01T10:52:30;9.29;95.42
71096;DHT22;58753;49.440;11.126;2022-10-01T10:55:00;9.32;95.54
71096;DHT22;58753;49.440;11.126;2022-10-01T10:57:33;9.35;95.53
71096;DHT22;58753;49.440;11.126;2022-10-01T11:00:18;9.36;95.63
71096;DHT22;58753;49.440;11.126;2022-10-01T11:02:59;9.40;95.29
71096;DHT22;58753;49.440;11.126;2022-10-01T11:05:28;9.40;95.50
71096;DHT22;58753;49.440;11.126;2022-10-01T11:08:02;9.43;95.43
71096;DHT22;58753;49.440;11.126;2022-10-01T11:27:32;9.53;95.52
71096;DHT22;58753;49.440;11.126;2022-10-01T11:30:36;9.53;95.39
71096;DHT22;58753;49.440;11.126;2022-10-01T11:36:11;9.55;95.54
71096;DHT22;58753;49.440;11.126;2022-10-01T11:38:56;9.58;95.37
71096;DHT22;58753;49.440;11.126;2022-10-01T11:41:33;9.59;95.34
71096;DHT22;58753;49.440;11.126;2022-10-01T11:47:09;9.70;95.37
71096;DHT22;58753;49.440;11.126;2022-10-01T11:52:34;9.82;95.36
71096;DHT22;58753;49.440;11.126;2022-10-01T11:55:13;9.86;95.30
71096;DHT22;58753;49.440;11.126;2022-10-01T11:58:05;9.92;95.41
71096;DHT22;58753;49.440;11.126;2022-10-01T12:06:16;9.94;95.20
71096;DHT22;58753;49.440;11.126;2022-10-01T12:08:47;9.96;94.67
71096;DHT22;58753;49.440;11.126;2022-10-01T12:11:19;9.97;94.93
71096;DHT22;58753;49.440;11.126;2022-10-01T12:13:58;9.99;94.78
71096;DHT22;58753;49.440;11.126;2022-10-01T12:16:45;10.03;94.94
71096;DHT22;58753;49.440;11.126;2022-10-01T12:21:39;10.10;94.68
71096;DHT22;58753;49.440;11.126;2022-10-01T12:37:56;10.38;94.45
71096;DHT22;58753;49.440;11.126;2022-10-01T12:40:35;10.47;94.05
71096;DHT22;58753;49.440;11.126;2022-10-01T12:46:29;10.53;93.99
71096;DHT22;58753;49.440;11.126;2022-10-01T12:49:21;10.54;93.94
71096;DHT22;58753;49.440;11.126;2022-10-01T12:57:36;10.60;94.01
71096;DHT22;58753;49.440;11.126;2022-10-01T13:13:36;10.86;93.12
71096;DHT22;58753;49.440;11.126;2022-10-01T13:16:11;10.85;93.16
71096;DHT22;58753;49.440;11.126;2022-10-01T13:19:08;10.86;93.01
71096;DHT22;58753;49.440;11.126;2022-10-01T13:24:27;11.01;92.79
71096;DHT22;58753;49.440;11.126;2022-10-01T13:27:17;11.04;92.93
71096;DHT22;58753;49.440;11.126;2022-10-01T13:29:55;11.14;92.96
71096;DHT22;58753;49.440;11.126;2022-10-01T13:32:47;11.20;92.62
71096;DHT22;58753;49.440;11.126;2022-10-01T13:35:25;11.18;92.69
71096;DHT22;58753;49.440;11.126;2022-10-01T13:37:51;11.16;92.65
71096;DHT22;58753;49.440;11.126;2022-10-01T13:40:31;11.16;92.50
71096;DHT22;58753;49.440;11.126;2022-10-01T13:43:00;11.16;92.58
71096;DHT22;58753;49.440;11.126;2022-10-01T13:48:07;11.12;92.52
71096;DHT22;58753;49.440;11.126;2022-10-01T13:50:52;11.11;92.62
71096;DHT22;58753;49.440;11.126;2022-10-01T13:53:21;11.08;92.70
71096;DHT22;58753;49.440;11.126;2022-10-01T13:55:47;11.16;92.68
71096;DHT22;58753;49.440;11.126;2022-10-01T14:00:55;11.19;92.53
71096;DHT22;58753;49.440;11.126;2022-10-01T14:09:14;11.25;92.47
71096;DHT22;58753;49.440;11.126;2022-10-01T14:11:47;11.29;92.40
71096;DHT22;58753;49.440;11.126;2022-10-01T14:14:37;11.29;92.47
71096;DHT22;58753;49.440;11.126;2022-10-01T14:17:25;11.30;92.43
71096;DHT22;58753;49.440;11.126;2022-10-01T14:19:52;11.29;92.40
71096;DHT22;58753;49.440;11.126;2022-10-01T14:22:30;11.33;92.35
71096;DHT22;58753;49.440;11.126;2022-10-01T14:36:25;11.32;92.23
71096;DHT22;58753;49.440;11.126;2022-10-01T14:41:37;11.32;92.16
71096;DHT22;58753;49.440;11.126;2022-10-01T14:46:42;11.33;92.18
71096;DHT22;58753;49.440;11.126;2022-10-01T14:49:18;11.30;92.23
71096;DHT22;58753;49.440;11.126;2022-10-01T14:51:54;11.30;92.40
71096;DHT22;58753;49.440;11.126;2022-10-01T14:54:20;11.33;92.44
71096;DHT22;58753;49.440;11.126;2022-10-01T14:56:47;11.30;92.33
71096;DHT22;58753;49.440;11.126;2022-10-01T14:59:21;11.38;92.45
71096;DHT22;58753;49.440;11.126;2022-10-01T15:01:58;11.38;92.36
71096;DHT22;58753;49.440;11.126;2022-10-01T15:04:24;11.43;92.48
71096;DHT22;58753;49.440;11.126;2022-10-01T15:06:50;11.43;92.42
71096;DHT22;58753;49.440;11.126;2022-10-01T15:09:16;11.42;92.46
71096;DHT22;58753;49.440;11.126;2022-10-01T15:11:46;11.47;92.52
71096;DHT22;58753;49.440;11.126;2022-10-01T15:14:18;11.50;92.52
71096;DHT22;58753;49.440;11.126;2022-10-01T15:16:45;11.49;92.34
71096;DHT22;58753;49.440;11.126;2022-10-01T15:19:17;11.55;92.57
71096;DHT22;58753;49.440;11.126;2022-10-01T15:21:57;11.56;92.35
71096;DHT22;58753;49.440;11.126;2022-10-01T15:24:25;11.60;92.28
71096;DHT22;58753;49.440;11.126;2022-10-01T15:26:54;11.62;92.35
71096;DHT22;58753;49.440;11.126;2022-10-01T15:29:20;11.65;92.26
71096;DHT22;58753;49.440;11.126;2022-10-01T15:31:47;11.67;92.14
71096;DHT22;58753;49.440;11.126;2022-10-01T15:34:16;11.66;92.07
71096;DHT22;58753;49.440;11.126;2022-10-01T15:36:42;11.69;91.96
71096;DHT22;58753;49.440;11.126;2022-10-01T15:41:49;11.79;91.79
71096;DHT22;58753;49.440;11.126;2022-10-01T15:47:36;11.80;91.58
71096;DHT22;58753;49.440;11.126;2022-10-01T15:58:01;11.87;91.18
71096;DHT22;58753;49.440;11.126;2022-10-01T16:00:29;11.86;91.19
71096;DHT22;58753;49.440;11.126;2022-10-01T16:02:57;11.84;91.14
71096;DHT22;58753;49.440;11.126;2022-10-01T16:05:30;11.89;91.18
71096;DHT22;58753;49.440;11.126;2022-10-01T16:07:57;11.83;91.19
71096;DHT22;58753;49.440;11.126;2022-10-01T16:10:27;11.86;91.31
71096;DHT22;58753;49.440;11.126;2022-10-01T16:12:53;11.80;91.34
71096;DHT22;58753;49.440;11.126;2022-10-01T16:15:25;11.83;91.28
71096;DHT22;58753;49.440;11.126;2022-10-01T16:17:59;11.80;91.34
71096;DHT22;58753;49.440;11.126;2022-10-01T16:20:42;11.83;91.32
71096;DHT22;58753;49.440;11.126;2022-10-01T16:25:55;11.90;91.05
71096;DHT22;58753;49.440;11.126;2022-10-01T16:28:32;11.95;90.87
71096;DHT22;58753;49.440;11.126;2022-10-01T16:30:59;12.04;90.59
71096;DHT22;58753;49.440;11.126;2022-10-01T16:33:24;12.07;90.44
71096;DHT22;58753;49.440;11.126;2022-10-01T16:35:51;12.00;90.43
71096;DHT22;58753;49.440;11.126;2022-10-01T16:38:18;12.05;90.23
71096;DHT22;58753;49.440;11.126;2022-10-01T16:40:45;12.08;90.12
71096;DHT22;58753;49.440;11.126;2022-10-01T16:43:19;12.08;90.00
71096;DHT22;58753;49.440;11.126;2022-10-01T16:45:48;12.04;90.05
71096;DHT22;58753;49.440;11.126;2022-10-01T16:48:16;12.13;89.85
71096;DHT22;58753;49.440;11.126;2022-10-01T16:50:42;12.11;89.83
71096;DHT22;58753;49.440;11.126;2022-10-01T16:53:11;12.07;89.78
71096;DHT22;58753;49.440;11.126;2022-10-01T16:55:37;12.07;89.82
71096;DHT22;58753;49.440;11.126;2022-10-01T16:58:03;12.05;89.83
71096;DHT22;58753;49.440;11.126;2022-10-01T17:00:29;12.04;89.90
71096;DHT22;58753;49.440;11.126;2022-10-01T17:02:55;12.02;89.95
71096;DHT22;58753;49.440;11.126;2022-10-01T17:05:27;11.98;89.98
71096;DHT22;58753;49.440;11.126;2022-10-01T17:07:54;12.00;90.10
71096;DHT22;58753;49.440;11.126;2022-10-01T17:10:27;12.02;89.98
71096;DHT22;58753;49.440;11.126;2022-10-01T17:12:55;12.02;90.04
71096;DHT22;58753;49.440;11.126;2022-10-01T17:15:23;12.01;90.06
71096;DHT22;58753;49.440;11.126;2022-10-01T17:17:54;12.07;90.01
71096;DHT22;58753;49.440;11.126;2022-10-01T17:20:20;12.11;89.88
71096;DHT22;58753;49.440;11.126;2022-10-01T17:22:50;12.17;89.73
71096;DHT22;58753;49.440;11.126;2022-10-01T17:25:18;12.16;89.60
71096;DHT22;58753;49.440;11.126;2022-10-01T17:27:44;12.14;89.62
71096;DHT22;58753;49.440;11.126;2022-10-01T17:30:10;12.08;89.53
71096;DHT22;58753;49.440;11.126;2022-10-01T17:32:35;12.04;89.65
71096;DHT22;58753;49.440;11.126;2022-10-01T17:35:05;12.07;89.90
71096;DHT22;58753;49.440;11.126;2022-10-01T17:37:31;12.08;89.88
71096;DHT22;58753;49.440;11.126;2022-10-01T17:39:56;12.08;89.87
71096;DHT22;58753;49.440;11.126;2022-10-01T17:42:22;12.05;89.86
71096;DHT22;58753;49.440;11.126;2022-10-01T17:44:47;12.11;89.83
71096;DHT22;58753;49.440;11.126;2022-10-01T17:47:12;12.21;89.55
71096;DHT22;58753;49.440;11.126;2022-10-01T17:49:38;12.24;89.46
71096;DHT22;58753;49.440;11.126;2022-10-01T17:52:04;12.25;89.24
71096;DHT22;58753;49.440;11.126;2022-10-01T17:54:30;12.24;89.22
71096;DHT22;58753;49.440;11.126;2022-10-01T17:56:55;12.25;89.07
71096;DHT22;58753;49.440;11.126;2022-10-01T17:59:21;12.25;89.17
71096;DHT22;58753;49.440;11.126;2022-10-01T18:01:46;12.27;89.01
71096;DHT22;58753;49.440;11.126;2022-10-01T18:04:12;12.30;88.92
71096;DHT22;58753;49.440;11.126;2022-10-01T18:06:38;12.31;88.87
71096;DHT22;58753;49.440;11.126;2022-10-01T18:09:04;12.31;88.89
71096;DHT22;58753;49.440;11.126;2022-10-01T18:11:30;12.32;88.81
71096;DHT22;58753;49.440;11.126;2022-10-01T18:13:56;12.35;88.71
71096;DHT22;58753;49.440;11.126;2022-10-01T18:16:22;12.37;88.70
71096;DHT22;58753;49.440;11.126;2022-10-01T18:18:53;12.34;88.65
71096;DHT22;58753;49.440;11.126;2022-10-01T18:21:19;12.35;88.69
71096;DHT22;58753;49.440;11.126;2022-10-01T18:23:44;12.34;88.74